SBI7013 UNNT-UNTT
Flight info
| Callsign | SBI7013 |
|---|---|
| Flight time | 0h 33m |
| Altitude | 21000 |
| Route | DIMID G828 NN |
| Aircraft | E170/M-SDE2E3FGHIRWXY/LB1 |
Departure
| Time | 2026-04-29 15:58 |
|---|---|
| Airport | Novosibirsk Tolmachevo Airport (UNNT) |
Arrival
| Time | 2026-04-29 16:31 |
|---|---|
| Airport | Tomsk Kamov Airport (UNTT) |
| Time | Latitude | Longitude | Altitude | Speed | Heading |
|---|---|---|---|---|---|
| 2026-04-29 15:38 | 55.00929 | 82.66203 | 371 ft | 0 kts | 170° |
| 2026-04-29 15:52 | 55.00950 | 82.66200 | 371 ft | 4 kts | 176° |
| 2026-04-29 15:52 | 55.00971 | 82.66195 | 371 ft | 4 kts | 175° |
| 2026-04-29 15:52 | 55.00987 | 82.66210 | 371 ft | 2 kts | 251° |
| 2026-04-29 15:53 | 55.00996 | 82.66247 | 371 ft | 4 kts | 234° |
| 2026-04-29 15:53 | 55.01009 | 82.66264 | 371 ft | 4 kts | 190° |
| 2026-04-29 15:53 | 55.01042 | 82.66258 | 371 ft | 4 kts | 172° |
| 2026-04-29 15:53 | 55.01066 | 82.66252 | 371 ft | 1 kts | 171° |
| 2026-04-29 15:54 | 55.01067 | 82.66251 | 371 ft | 3 kts | 171° |
| 2026-04-29 15:55 | 55.01049 | 82.66257 | 371 ft | 7 kts | 171° |
| 2026-04-29 15:56 | 55.01007 | 82.66285 | 371 ft | 4 kts | 114° |
| 2026-04-29 15:56 | 55.01073 | 82.66604 | 371 ft | 12 kts | 63° |
| 2026-04-29 15:57 | 55.01188 | 82.66638 | 371 ft | 14 kts | 351° |
| 2026-04-29 15:57 | 55.01369 | 82.66605 | 372 ft | 7 kts | 340° |
| 2026-04-29 15:57 | 55.01379 | 82.66552 | 372 ft | 2 kts | 263° |
| 2026-04-29 15:58 | 55.01344 | 82.66215 | 370 ft | 68 kts | 261° |
| 2026-04-29 15:58 | 55.01230 | 82.64916 | 370 ft | 147 kts | 262° |
| 2026-04-29 15:58 | 55.01059 | 82.62971 | 971 ft | 170 kts | 258° |
| 2026-04-29 15:58 | 55.00838 | 82.60895 | 1973 ft | 174 kts | 254° |
| 2026-04-29 15:59 | 55.00587 | 82.58863 | 2928 ft | 172 kts | 253° |
| 2026-04-29 15:59 | 55.00345 | 82.56709 | 3610 ft | 187 kts | 259° |
| 2026-04-29 15:59 | 55.00221 | 82.54344 | 4296 ft | 206 kts | 267° |
| 2026-04-29 15:59 | 55.00366 | 82.51668 | 4870 ft | 236 kts | 282° |
| 2026-04-29 16:00 | 55.01077 | 82.48934 | 5495 ft | 263 kts | 308° |
| 2026-04-29 16:00 | 55.02568 | 82.47023 | 6453 ft | 273 kts | 337° |
| 2026-04-29 16:00 | 55.04435 | 82.46397 | 7531 ft | 276 kts | 358° |
| 2026-04-29 16:00 | 55.06363 | 82.46524 | 8543 ft | 278 kts | 3° |
| 2026-04-29 16:01 | 55.08304 | 82.46777 | 9458 ft | 282 kts | 3° |
| 2026-04-29 16:01 | 55.10274 | 82.47017 | 10365 ft | 286 kts | 2° |
| 2026-04-29 16:01 | 55.12311 | 82.47234 | 10861 ft | 304 kts | 1° |
| 2026-04-29 16:01 | 55.14494 | 82.47476 | 11259 ft | 324 kts | 2° |
| 2026-04-29 16:02 | 55.16778 | 82.47829 | 11737 ft | 340 kts | 4° |
| 2026-04-29 16:02 | 55.19153 | 82.48287 | 12541 ft | 345 kts | 4° |
| 2026-04-29 16:02 | 55.21553 | 82.48737 | 13478 ft | 349 kts | 4° |
| 2026-04-29 16:02 | 55.23979 | 82.49139 | 14421 ft | 352 kts | 2° |
| 2026-04-29 16:03 | 55.26440 | 82.49516 | 15319 ft | 356 kts | 2° |
| 2026-04-29 16:03 | 55.28929 | 82.49900 | 16201 ft | 361 kts | 2° |
| 2026-04-29 16:03 | 55.31452 | 82.50308 | 17038 ft | 366 kts | 2° |
| 2026-04-29 16:03 | 55.34004 | 82.50756 | 17843 ft | 372 kts | 3° |
| 2026-04-29 16:04 | 55.36601 | 82.51245 | 18660 ft | 377 kts | 3° |
| 2026-04-29 16:04 | 55.39220 | 82.51759 | 19384 ft | 381 kts | 3° |
| 2026-04-29 16:04 | 55.41866 | 82.52301 | 20093 ft | 385 kts | 4° |
| 2026-04-29 16:04 | 55.44549 | 82.52880 | 20798 ft | 390 kts | 4° |
| 2026-04-29 16:05 | 55.47262 | 82.53495 | 21373 ft | 397 kts | 4° |
| 2026-04-29 16:05 | 55.50010 | 82.54161 | 21394 ft | 407 kts | 5° |
| 2026-04-29 16:05 | 55.52807 | 82.54989 | 21357 ft | 408 kts | 6° |
| 2026-04-29 16:05 | 55.55605 | 82.55848 | 21324 ft | 408 kts | 6° |
| 2026-04-29 16:06 | 55.58406 | 82.56698 | 21326 ft | 408 kts | 6° |
| 2026-04-29 16:06 | 55.61219 | 82.57546 | 21331 ft | 409 kts | 6° |
| 2026-04-29 16:06 | 55.64023 | 82.58390 | 21333 ft | 409 kts | 6° |
| 2026-04-29 16:06 | 55.66833 | 82.59234 | 21321 ft | 409 kts | 6° |
| 2026-04-29 16:07 | 55.69634 | 82.60079 | 21323 ft | 409 kts | 6° |
| 2026-04-29 16:07 | 55.71489 | 82.60637 | 21328 ft | 409 kts | 6° |
| 2026-04-29 16:07 | 55.75249 | 82.61773 | 21324 ft | 409 kts | 6° |
| 2026-04-29 16:07 | 55.78055 | 82.62621 | 21316 ft | 409 kts | 6° |
| 2026-04-29 16:08 | 55.79909 | 82.63182 | 21322 ft | 409 kts | 6° |
| 2026-04-29 16:08 | 55.88782 | 82.65872 | 21323 ft | 409 kts | 6° |
| 2026-04-29 16:09 | 55.91591 | 82.66726 | 21318 ft | 409 kts | 6° |
| 2026-04-29 16:09 | 55.94400 | 82.67582 | 21324 ft | 410 kts | 6° |
| 2026-04-29 16:09 | 55.97208 | 82.68439 | 21323 ft | 410 kts | 6° |
| 2026-04-29 16:09 | 56.00017 | 82.69296 | 21319 ft | 410 kts | 6° |
| 2026-04-29 16:10 | 56.02790 | 82.70184 | 21317 ft | 411 kts | 9° |
| 2026-04-29 16:10 | 56.05475 | 82.72028 | 21323 ft | 420 kts | 27° |
| 2026-04-29 16:10 | 56.07715 | 82.75430 | 21337 ft | 428 kts | 48° |
| 2026-04-29 16:10 | 56.08313 | 82.76889 | 21326 ft | 430 kts | 55° |
| 2026-04-29 16:11 | 56.10375 | 82.90022 | 21321 ft | 436 kts | 79° |
| 2026-04-29 16:11 | 56.10915 | 82.95350 | 21306 ft | 435 kts | 78° |
| 2026-04-29 16:11 | 56.11487 | 83.00671 | 21316 ft | 435 kts | 78° |
| 2026-04-29 16:12 | 56.12069 | 83.05929 | 21311 ft | 435 kts | 78° |
| 2026-04-29 16:12 | 56.12668 | 83.11312 | 21315 ft | 435 kts | 78° |
| 2026-04-29 16:12 | 56.13257 | 83.16623 | 21304 ft | 434 kts | 78° |
| 2026-04-29 16:12 | 56.13847 | 83.21938 | 21309 ft | 434 kts | 78° |
| 2026-04-29 16:13 | 56.14428 | 83.27183 | 21309 ft | 434 kts | 78° |
| 2026-04-29 16:13 | 56.15013 | 83.32497 | 21325 ft | 435 kts | 78° |
| 2026-04-29 16:13 | 56.15604 | 83.37822 | 21316 ft | 434 kts | 77° |
| 2026-04-29 16:13 | 56.16296 | 83.43099 | 21326 ft | 435 kts | 75° |
| 2026-04-29 16:14 | 56.17028 | 83.48354 | 21320 ft | 434 kts | 75° |
| 2026-04-29 16:14 | 56.17748 | 83.53625 | 21325 ft | 435 kts | 75° |
| 2026-04-29 16:14 | 56.18459 | 83.58903 | 21322 ft | 435 kts | 75° |
| 2026-04-29 16:14 | 56.19163 | 83.64193 | 21321 ft | 435 kts | 76° |
| 2026-04-29 16:15 | 56.19860 | 83.69465 | 21247 ft | 431 kts | 76° |
| 2026-04-29 16:15 | 56.20540 | 83.74640 | 21112 ft | 421 kts | 76° |
| 2026-04-29 16:15 | 56.21210 | 83.79756 | 21280 ft | 422 kts | 76° |
| 2026-04-29 16:15 | 56.21882 | 83.84910 | 20914 ft | 423 kts | 76° |
| 2026-04-29 16:16 | 56.22548 | 83.90033 | 20478 ft | 420 kts | 76° |
| 2026-04-29 16:16 | 56.23207 | 83.95135 | 19881 ft | 417 kts | 76° |
| 2026-04-29 16:16 | 56.23850 | 84.00116 | 19297 ft | 411 kts | 75° |
| 2026-04-29 16:16 | 56.24599 | 84.05041 | 18762 ft | 405 kts | 72° |
| 2026-04-29 16:17 | 56.25417 | 84.09846 | 18202 ft | 400 kts | 71° |
| 2026-04-29 16:17 | 56.26227 | 84.14618 | 17702 ft | 397 kts | 71° |
| 2026-04-29 16:17 | 56.27011 | 84.19362 | 17169 ft | 393 kts | 72° |
| 2026-04-29 16:17 | 56.27776 | 84.24075 | 16645 ft | 390 kts | 72° |
| 2026-04-29 16:18 | 56.28528 | 84.28746 | 16134 ft | 386 kts | 72° |
| 2026-04-29 16:18 | 56.29268 | 84.33364 | 15633 ft | 383 kts | 72° |
| 2026-04-29 16:18 | 56.30000 | 84.37948 | 15116 ft | 378 kts | 72° |
| 2026-04-29 16:18 | 56.30718 | 84.42448 | 14616 ft | 369 kts | 73° |
| 2026-04-29 16:19 | 56.31419 | 84.46857 | 14129 ft | 361 kts | 73° |
| 2026-04-29 16:19 | 56.32100 | 84.51149 | 13661 ft | 352 kts | 73° |
| 2026-04-29 16:19 | 56.32763 | 84.55344 | 13198 ft | 343 kts | 73° |
| 2026-04-29 16:19 | 56.33409 | 84.59434 | 12753 ft | 336 kts | 73° |
| 2026-04-29 16:20 | 56.34041 | 84.63448 | 12307 ft | 329 kts | 73° |
| 2026-04-29 16:20 | 56.34659 | 84.67382 | 11877 ft | 324 kts | 73° |
| 2026-04-29 16:20 | 56.35268 | 84.71260 | 11449 ft | 318 kts | 73° |
| 2026-04-29 16:20 | 56.35864 | 84.75073 | 11039 ft | 314 kts | 73° |
| 2026-04-29 16:21 | 56.36452 | 84.78837 | 10622 ft | 310 kts | 73° |
| 2026-04-29 16:21 | 56.37030 | 84.82552 | 10215 ft | 306 kts | 73° |
| 2026-04-29 16:21 | 56.37600 | 84.86218 | 9811 ft | 301 kts | 73° |
| 2026-04-29 16:21 | 56.38249 | 84.89755 | 9418 ft | 294 kts | 61° |
| 2026-04-29 16:22 | 56.39491 | 84.92546 | 9078 ft | 285 kts | 42° |
| 2026-04-29 16:22 | 56.40962 | 84.94922 | 8672 ft | 282 kts | 39° |
| 2026-04-29 16:22 | 56.42452 | 84.97220 | 8289 ft | 280 kts | 39° |
| 2026-04-29 16:22 | 56.43910 | 84.99512 | 7932 ft | 277 kts | 40° |
| 2026-04-29 16:23 | 56.45345 | 85.01810 | 7561 ft | 274 kts | 40° |
| 2026-04-29 16:23 | 56.46764 | 85.04107 | 7198 ft | 272 kts | 40° |
| 2026-04-29 16:23 | 56.48164 | 85.06388 | 6837 ft | 270 kts | 40° |
| 2026-04-29 16:23 | 56.49559 | 85.08669 | 6472 ft | 268 kts | 40° |
| 2026-04-29 16:24 | 56.50936 | 85.10927 | 6117 ft | 266 kts | 40° |
| 2026-04-29 16:24 | 56.52298 | 85.13161 | 5772 ft | 264 kts | 40° |
| 2026-04-29 16:24 | 56.53657 | 85.15399 | 5425 ft | 263 kts | 40° |
| 2026-04-29 16:24 | 56.55012 | 85.17634 | 5070 ft | 264 kts | 40° |
| 2026-04-29 16:25 | 56.56349 | 85.19843 | 4725 ft | 263 kts | 40° |
| 2026-04-29 16:25 | 56.57640 | 85.22178 | 4143 ft | 266 kts | 53° |
| 2026-04-29 16:25 | 56.58212 | 85.25320 | 3551 ft | 259 kts | 92° |
| 2026-04-29 16:25 | 56.57727 | 85.28278 | 3283 ft | 237 kts | 122° |
| 2026-04-29 16:26 | 56.56775 | 85.30624 | 3015 ft | 227 kts | 132° |
| 2026-04-29 16:26 | 56.55779 | 85.32808 | 2772 ft | 221 kts | 130° |
| 2026-04-29 16:26 | 56.54855 | 85.35003 | 2668 ft | 215 kts | 131° |
| 2026-04-29 16:26 | 56.53734 | 85.36716 | 2360 ft | 208 kts | 158° |
| 2026-04-29 16:27 | 56.52393 | 85.37114 | 2259 ft | 187 kts | 191° |
| 2026-04-29 16:27 | 56.51211 | 85.36421 | 2231 ft | 174 kts | 213° |
| 2026-04-29 16:27 | 56.50232 | 85.35218 | 2314 ft | 166 kts | 217° |
| 2026-04-29 16:27 | 56.49266 | 85.34109 | 2440 ft | 163 kts | 214° |
| 2026-04-29 16:28 | 56.48303 | 85.33000 | 2424 ft | 166 kts | 217° |
| 2026-04-29 16:28 | 56.47342 | 85.31825 | 2217 ft | 163 kts | 217° |
| 2026-04-29 16:28 | 56.46424 | 85.30736 | 2225 ft | 150 kts | 216° |
| 2026-04-29 16:28 | 56.45579 | 85.29723 | 2193 ft | 145 kts | 217° |
| 2026-04-29 16:29 | 56.44735 | 85.28712 | 1980 ft | 144 kts | 216° |
| 2026-04-29 16:29 | 56.43911 | 85.27729 | 1800 ft | 139 kts | 216° |
| 2026-04-29 16:29 | 56.43121 | 85.26787 | 1607 ft | 134 kts | 216° |
| 2026-04-29 16:29 | 56.42347 | 85.25861 | 1432 ft | 133 kts | 215° |
| 2026-04-29 16:30 | 56.41580 | 85.24934 | 1204 ft | 134 kts | 213° |
| 2026-04-29 16:30 | 56.40801 | 85.24017 | 1019 ft | 133 kts | 214° |
| 2026-04-29 16:30 | 56.40031 | 85.23095 | 846 ft | 132 kts | 212° |
| 2026-04-29 16:30 | 56.39254 | 85.22175 | 659 ft | 133 kts | 214° |
| 2026-04-29 16:31 | 56.38502 | 85.21280 | 569 ft | 119 kts | 214° |
| 2026-04-29 16:31 | 56.38013 | 85.20694 | 570 ft | 54 kts | 213° |
| 2026-04-29 16:31 | 56.37805 | 85.20448 | 570 ft | 13 kts | 213° |
| 2026-04-29 16:31 | 56.37783 | 85.20343 | 566 ft | 9 kts | 285° |
| 2026-04-29 16:32 | 56.37817 | 85.20241 | 566 ft | 10 kts | 305° |
| 2026-04-29 16:32 | 56.37862 | 85.20134 | 570 ft | 10 kts | 331° |
| 2026-04-29 16:32 | 56.37919 | 85.20161 | 568 ft | 9 kts | 34° |
| 2026-04-29 16:32 | 56.37979 | 85.20237 | 566 ft | 12 kts | 32° |
| 2026-04-29 16:33 | 56.38157 | 85.20445 | 566 ft | 20 kts | 33° |
| 2026-04-29 16:33 | 56.38277 | 85.20591 | 566 ft | 22 kts | 35° |
| 2026-04-29 16:33 | 56.38389 | 85.20722 | 568 ft | 14 kts | 34° |
| 2026-04-29 16:34 | 56.38458 | 85.20807 | 567 ft | 10 kts | 32° |
| 2026-04-29 16:34 | 56.38526 | 85.20884 | 568 ft | 13 kts | 32° |
| 2026-04-29 16:34 | 56.38609 | 85.20980 | 572 ft | 16 kts | 33° |
| 2026-04-29 16:34 | 56.38684 | 85.21071 | 571 ft | 11 kts | 33° |
| 2026-04-29 16:35 | 56.38748 | 85.21146 | 571 ft | 12 kts | 33° |
| 2026-04-29 16:35 | 56.38806 | 85.21216 | 568 ft | 7 kts | 33° |
| 2026-04-29 16:35 | 56.38856 | 85.21230 | 566 ft | 8 kts | 328° |
| 2026-04-29 16:35 | 56.38881 | 85.21179 | 570 ft | 3 kts | 307° |
| 2026-04-29 16:36 | 56.38886 | 85.21166 | 571 ft | 0 kts | 303° |